createdAt,value
2023-03-06T00:04:51.608Z,11.43
2023-03-06T00:09:43.544Z,10.83
2023-03-06T00:14:35.680Z,11.10
2023-03-06T00:19:28.249Z,11.27
2023-03-06T00:24:20.270Z,10.80
2023-03-06T00:29:12.507Z,9.85
2023-03-06T00:34:04.439Z,11.37
2023-03-06T00:38:56.308Z,9.43
2023-03-06T00:43:50.139Z,9.55
2023-03-06T00:48:44.176Z,10.18
2023-03-06T00:53:36.248Z,10.25
2023-03-06T00:58:29.268Z,9.93
2023-03-06T01:03:21.764Z,9.43
2023-03-06T01:08:16.864Z,9.43
2023-03-06T01:13:08.802Z,9.55
2023-03-06T01:18:01.105Z,9.30
2023-03-06T01:22:56.621Z,9.90
2023-03-06T01:27:48.450Z,9.48
2023-03-06T01:32:44.479Z,8.70
2023-03-06T01:37:37.680Z,10.55
2023-03-06T01:42:32.242Z,9.50
2023-03-06T01:47:24.203Z,9.10
2023-03-06T01:52:19.418Z,8.90
2023-03-06T01:57:19.553Z,9.38
2023-03-06T02:02:13.355Z,8.57
2023-03-06T02:07:07.031Z,8.93
2023-03-06T02:12:03.498Z,8.70
2023-03-06T02:16:55.520Z,9.10
2023-03-06T02:21:48.605Z,9.30
2023-03-06T02:26:42.823Z,9.18
2023-03-06T02:31:35.748Z,8.65
2023-03-06T02:36:30.111Z,9.15
2023-03-06T02:41:22.174Z,8.57
2023-03-06T02:46:14.182Z,8.63
2023-03-06T02:51:06.115Z,8.77
2023-03-06T02:55:58.016Z,8.38
2023-03-06T03:00:49.969Z,9.02
2023-03-06T03:05:42.689Z,8.32
2023-03-06T03:10:47.872Z,8.20
2023-03-06T03:15:39.913Z,8.20
2023-03-06T03:20:31.867Z,8.52
2023-03-06T03:25:25.492Z,7.97
2023-03-06T03:30:21.473Z,7.40
2023-03-06T03:35:13.758Z,7.82
2023-03-06T03:40:10.353Z,8.20
2023-03-06T03:45:02.567Z,7.80
2023-03-06T03:49:54.806Z,8.13
2023-03-06T03:54:49.494Z,7.43
2023-03-06T03:59:42.751Z,8.07
2023-03-06T04:04:48.546Z,8.35
2023-03-06T04:09:40.586Z,8.50
2023-03-06T04:14:34.718Z,8.02
2023-03-06T04:19:27.221Z,7.70
2023-03-06T04:24:19.264Z,6.97
2023-03-06T04:29:11.589Z,6.87
2023-03-06T04:34:04.595Z,7.43
2023-03-06T04:38:59.232Z,7.40
2023-03-06T04:43:53.154Z,7.63
2023-03-06T04:48:45.443Z,6.93
2023-03-06T04:53:37.454Z,7.27
2023-03-06T04:58:29.330Z,7.03
2023-03-06T05:03:21.176Z,7.13
2023-03-06T05:08:15.356Z,6.93
2023-03-06T05:13:09.311Z,6.57
2023-03-06T05:18:01.133Z,6.97
2023-03-06T05:22:53.023Z,7.05
2023-03-06T05:27:45.015Z,6.65
2023-03-06T05:32:36.866Z,7.28
2023-03-06T05:37:28.683Z,7.03
2023-03-06T05:42:20.743Z,7.07
2023-03-06T05:47:16.319Z,6.43
2023-03-06T05:52:08.879Z,6.82
2023-03-06T05:57:01.184Z,6.65
2023-03-06T06:01:53.106Z,6.70
2023-03-06T06:06:46.097Z,6.60
2023-03-06T06:11:38.002Z,6.57
2023-03-06T06:16:30.089Z,6.20
2023-03-06T06:21:22.096Z,6.63
2023-03-06T06:26:13.974Z,6.75
2023-03-06T06:31:13.432Z,6.72
2023-03-06T06:36:06.642Z,7.22
2023-03-06T06:41:30.669Z,6.35
2023-03-06T06:46:41.889Z,6.53
2023-03-06T06:51:22.780Z,6.45
2023-03-06T06:56:14.719Z,6.88
2023-03-06T07:01:08.322Z,6.15
2023-03-06T07:06:00.647Z,6.40
2023-03-06T07:10:52.715Z,6.43
2023-03-06T07:15:44.715Z,7.65
2023-03-06T07:20:36.515Z,5.65
2023-03-06T07:25:28.402Z,8.20
2023-03-06T07:30:22.882Z,11.23
2023-03-06T07:35:20.368Z,8.95
2023-03-06T07:40:12.865Z,7.25
2023-03-06T07:45:06.228Z,7.50
2023-03-06T07:49:58.763Z,8.07
2023-03-06T07:54:50.609Z,8.05
2023-03-06T07:59:43.471Z,6.75
2023-03-06T08:04:35.343Z,7.57
2023-03-06T08:09:27.531Z,7.68
2023-03-06T08:14:20.528Z,7.83
2023-03-06T08:19:12.370Z,9.32
2023-03-06T08:24:05.507Z,8.13
2023-03-06T08:28:59.659Z,8.57
2023-03-06T08:33:52.114Z,9.38
2023-03-06T08:38:43.985Z,8.50
2023-03-06T08:43:36.204Z,8.70
2023-03-06T08:48:28.408Z,16.83
2023-03-06T08:53:22.693Z,13.98
2023-03-06T08:58:19.885Z,11.90
2023-03-06T09:03:11.763Z,11.10
2023-03-06T09:08:03.681Z,10.63
2023-03-06T09:12:56.526Z,11.35
2023-03-06T09:17:48.470Z,13.40
2023-03-06T09:22:42.575Z,11.10
2023-03-06T09:27:34.330Z,10.70
2023-03-06T09:32:26.346Z,10.77
2023-03-06T09:37:18.658Z,10.27
2023-03-06T09:42:16.658Z,11.00
2023-03-06T09:47:28.673Z,11.20
2023-03-06T09:52:43.612Z,11.90
2023-03-06T09:57:38.700Z,11.50
2023-03-06T10:02:35.695Z,12.43
2023-03-06T10:07:45.020Z,13.93
2023-03-06T10:12:40.441Z,13.57
2023-03-06T10:17:38.021Z,12.07
2023-03-06T10:22:39.099Z,11.50
2023-03-06T10:27:47.693Z,13.43
2023-03-06T10:32:59.338Z,13.20
2023-03-06T10:37:51.361Z,11.70
2023-03-06T10:42:43.247Z,11.88
2023-03-06T10:47:36.974Z,13.68
2023-03-06T10:52:33.484Z,13.68
2023-03-06T10:57:28.530Z,13.63
2023-03-06T11:02:38.704Z,13.80
2023-03-06T11:07:35.002Z,13.70
2023-03-06T11:12:41.237Z,13.52
2023-03-06T11:17:37.688Z,12.32
2023-03-06T11:22:29.580Z,13.43
2023-03-06T11:27:26.245Z,11.98
2023-03-06T11:32:24.301Z,11.63
2023-03-06T11:37:25.313Z,11.07
2023-03-06T11:42:17.383Z,12.50
2023-03-06T11:47:21.054Z,11.27
2023-03-06T11:52:43.291Z,10.77
2023-03-06T11:57:49.216Z,12.10
2023-03-06T12:03:21.098Z,11.70
2023-03-06T12:08:20.824Z,10.77
2023-03-06T12:13:20.622Z,9.38
2023-03-06T12:18:18.340Z,10.80
2023-03-06T12:23:34.888Z,11.80
2023-03-06T12:28:59.835Z,10.02
2023-03-06T12:34:25.681Z,10.13
2023-03-06T12:39:48.316Z,9.93
2023-03-06T12:45:10.854Z,10.30
2023-03-06T12:50:22.972Z,11.32
2023-03-06T12:55:19.377Z,11.02
2023-03-06T13:00:32.661Z,11.32
2023-03-06T13:05:38.418Z,12.23
2023-03-06T13:10:35.218Z,9.70
2023-03-06T13:15:40.522Z,9.65
2023-03-06T13:20:44.648Z,8.55
2023-03-06T13:25:47.877Z,11.00
2023-03-06T13:30:39.946Z,8.23
2023-03-06T13:35:36.037Z,9.07
2023-03-06T13:40:33.410Z,9.00
2023-03-06T13:45:33.196Z,9.40
2023-03-06T13:50:41.773Z,9.35
2023-03-06T13:56:10.974Z,8.70
2023-03-06T14:01:19.976Z,9.18
2023-03-06T14:06:37.547Z,9.00
2023-03-06T14:11:30.338Z,9.70
2023-03-06T14:16:32.681Z,8.98
2023-03-06T14:21:31.551Z,9.90
2023-03-06T14:26:25.486Z,9.55
2023-03-06T14:31:19.695Z,9.45
2023-03-06T14:36:15.501Z,8.93
2023-03-06T14:41:37.736Z,9.55
2023-03-06T14:46:29.631Z,9.48
2023-03-06T14:51:23.826Z,9.80
2023-03-06T14:56:18.681Z,10.30
2023-03-06T15:01:13.298Z,9.65
2023-03-06T15:06:06.796Z,10.45
2023-03-06T15:11:04.033Z,10.45
2023-03-06T15:16:01.208Z,10.90
2023-03-06T15:21:05.650Z,13.63
2023-03-06T15:26:22.622Z,13.80
2023-03-06T15:31:27.998Z,11.45
2023-03-06T15:36:21.806Z,12.52
2023-03-06T15:41:24.051Z,12.63
2023-03-06T15:46:17.024Z,13.05
2023-03-06T15:51:09.024Z,14.77
2023-03-06T15:56:01.853Z,16.65
2023-03-06T16:00:53.862Z,17.17
2023-03-06T16:05:46.936Z,17.05
2023-03-06T16:15:33.947Z,16.63
2023-03-06T16:20:29.336Z,17.20
2023-03-06T16:25:23.142Z,17.25
2023-03-06T16:30:18.998Z,18.13
2023-03-06T16:35:14.503Z,18.23
2023-03-06T16:40:22.250Z,16.40
2023-03-06T16:45:14.501Z,17.30
2023-03-06T16:50:06.912Z,17.13
2023-03-06T16:54:58.841Z,19.23
2023-03-06T16:59:51.513Z,17.92
2023-03-06T17:04:43.421Z,17.30
2023-03-06T17:09:35.363Z,18.75
2023-03-06T17:14:27.885Z,18.92
2023-03-06T17:19:20.628Z,17.95
2023-03-06T17:24:12.579Z,17.67
2023-03-06T17:29:06.964Z,15.45
2023-03-06T17:34:01.994Z,17.05
2023-03-06T17:38:58.236Z,16.17
2023-03-06T17:43:57.880Z,16.27
2023-03-06T17:48:50.122Z,17.85
2023-03-06T17:53:42.039Z,15.93
2023-03-06T17:58:42.259Z,15.00
2023-03-06T18:03:34.141Z,16.85
2023-03-06T18:08:26.016Z,14.93
2023-03-06T18:13:18.035Z,15.25
2023-03-06T18:18:30.528Z,14.23
2023-03-06T18:23:23.505Z,15.87
2023-03-06T18:28:31.216Z,15.02
2023-03-06T18:33:23.205Z,14.52
2023-03-06T18:38:15.144Z,15.77
2023-03-06T18:43:07.097Z,13.00
2023-03-06T18:47:59.123Z,13.95
2023-03-06T18:52:51.729Z,12.95
2023-03-06T18:57:44.147Z,14.57
2023-03-06T19:02:36.034Z,12.10
2023-03-06T19:07:27.857Z,12.85
2023-03-06T19:12:19.796Z,12.23
2023-03-06T19:17:11.817Z,11.30
2023-03-06T19:22:03.646Z,12.00
2023-03-06T19:26:55.553Z,13.18
2023-03-06T19:31:47.408Z,11.40
2023-03-06T19:36:40.965Z,10.13
2023-03-06T19:41:33.770Z,11.13
2023-03-06T19:46:26.526Z,11.52
2023-03-06T19:51:18.363Z,11.27
2023-03-06T19:56:26.941Z,10.52
2023-03-06T20:01:21.095Z,10.70
2023-03-06T20:06:18.802Z,10.02
2023-03-06T20:11:18.894Z,9.73
2023-03-06T20:16:18.513Z,10.32
2023-03-06T20:21:11.905Z,10.35
2023-03-06T20:26:06.057Z,9.60
2023-03-06T20:30:58.137Z,9.57
2023-03-06T20:35:50.090Z,8.95
2023-03-06T20:40:43.114Z,8.85
2023-03-06T20:50:27.654Z,8.57
2023-03-06T20:55:19.644Z,8.88
2023-03-06T21:00:24.029Z,9.25
2023-03-06T21:05:15.923Z,9.07
2023-03-06T21:10:09.046Z,7.93
2023-03-06T21:19:54.224Z,8.85
2023-03-06T21:24:46.149Z,8.27
2023-03-06T21:29:37.977Z,6.95
2023-03-06T21:34:29.842Z,7.63
2023-03-06T21:39:21.891Z,7.45
2023-03-06T21:44:13.965Z,7.95
2023-03-06T21:49:06.077Z,6.45
2023-03-06T21:53:59.060Z,7.17
2023-03-06T21:58:52.147Z,6.80
2023-03-06T22:08:35.842Z,6.30
2023-03-06T22:13:27.712Z,7.05
2023-03-06T22:18:20.190Z,6.30
2023-03-06T22:23:12.232Z,6.88
2023-03-06T22:28:04.216Z,6.15
2023-03-06T22:32:56.077Z,6.70
2023-03-06T22:37:48.004Z,6.85
2023-03-06T22:42:39.894Z,6.65
2023-03-06T22:47:31.710Z,6.70
2023-03-06T22:52:24.684Z,6.35
2023-03-06T22:57:16.492Z,6.78
2023-03-06T23:02:08.409Z,5.85
2023-03-06T23:07:00.279Z,7.53
2023-03-06T23:11:52.183Z,6.22
2023-03-06T23:17:10.592Z,5.63
2023-03-06T23:22:21.566Z,5.47
2023-03-06T23:27:37.298Z,6.07
2023-03-06T23:32:29.140Z,6.38
2023-03-06T23:37:20.993Z,6.03
2023-03-06T23:42:12.990Z,5.70
2023-03-06T23:47:04.952Z,5.35
2023-03-06T23:51:56.825Z,5.20
2023-03-06T23:56:49.216Z,5.38
